Главная страница
METAR-TAF:

METAR-TAF

Аэропорты :

Гейтерсберг, Мэриленд, США

широта: 39-10-06N, долгота: 077-09-58W, высота над уровнем моря: 164 м

Текущие метеонаблюдения

Эта сводка был подготовлена 49 минут назад, в 05:56 UTC
Ветер 4 Узел от западный
Температура 24°C
Влажность 83%
Давление 1013 hPa
Видимость: 16.1 км
Сплошная облачность на высоте 6500 фута

METAR: KGAI 170556Z AUTO 26004KT 10SM OVC065 24/21 A2992 RMK AO2 LTG DSNT NW SLP150 6//// T02440206 10278 20244 51009 PNO $

Время: 02:45 (06:45 UTC)


TAF: отсутствует

Метеонаблюдения и прогнозы для более 4000 аэропортов (сводки METAR и TAF).

Имеющиеся станции представлены на карте желтыми и красными точками.

Чтобы увидеть название станции, наведите на нее мышь.

Затем щелкните, чтобы увидеть метеонаблюдения и метеопрогнозы.

Управление картой: чтобы увеличить масштаб, щелкните зеленые кнопки с черным крестиком; чтобы уменьшить масштаб, щелкните зеленую кнопку с тире; для просмотра соседних карт щелкайте зеленые стрелки.


METAR-TAF: